Terminal Aerodrome Forecast
Issued by NWS

Home | Current Version | Previous Version | Text Only | Print | Product List | Glossary On
Versions: 1 2 3 4 5 6 7 8 9 10 11 12 13 14 15 16 17
000
FTUS43 KOAX 231400 AAA
TAFBFF
TAF AMD
KBFF 231458Z 2315/2412 14011KT P6SM OVC022
     FM231700 14012G20KT P6SM SKC
     FM232300 15012G20KT P6SM VCTS SCT120CB=

USA.gov is the U.S. government's official web portal to all federal, state and local government web resources and services.